Archer, Wyoming
Current Conditions -  °F | °C
As of 4:53 PM on Tuesday 25 Nov 2014 (Local Time) from KCYS Reporting Station
Broken Clouds Broken Clouds  
Wind Chill: 29°   Ceiling: 5500
Heat Index: 40°   Visibility: 10mi
Dew Point: 23°   Wind: 26mph
Humidity: 51%   Direction: 300°WNW
Pressure: 29.87"   Gusts: 40mph
Location:  41.4091°N, 104.861°W
Report Text: KCYS 252353Z 30023G35KT 10SM BKN055 04/M05 A2987 RMK AO2 PK WND 29042/2321 SLP125 T00441050 10056 20022 53011
Loading
Personal Weather Stations






























Interactive Weather Map New forecast layout! Learn more

10-Day Weather Forecast

Advertisements
Track Severe Weather on mobile